createdAt,value
2022-11-30T00:00:50.819Z,18.43
2022-11-30T00:03:17.287Z,17.90
2022-11-30T00:05:44.299Z,16.73
2022-11-30T00:08:10.706Z,17.67
2022-11-30T00:10:40.335Z,17.23
2022-11-30T00:13:07.264Z,19.00
2022-11-30T00:15:33.986Z,16.17
2022-11-30T00:18:00.406Z,17.20
2022-11-30T00:20:28.813Z,15.53
2022-11-30T00:22:55.992Z,17.67
2022-11-30T00:25:22.615Z,15.00
2022-11-30T00:27:49.047Z,20.40
2022-11-30T00:30:15.591Z,15.50
2022-11-30T00:32:42.086Z,20.43
2022-11-30T00:35:08.580Z,17.73
2022-11-30T00:37:35.255Z,15.50
2022-11-30T00:40:01.652Z,16.80
2022-11-30T00:42:28.082Z,14.80
2022-11-30T00:44:54.477Z,17.20
2022-11-30T00:47:20.913Z,16.33
2022-11-30T00:49:47.342Z,17.57
2022-11-30T00:52:15.947Z,16.30
2022-11-30T00:54:42.620Z,17.77
2022-11-30T00:57:09.056Z,18.37
2022-11-30T00:59:35.457Z,17.13
2022-11-30T01:02:01.987Z,17.00
2022-11-30T01:04:28.465Z,16.73
2022-11-30T01:06:54.856Z,16.30
2022-11-30T01:09:21.287Z,17.30
2022-11-30T01:11:47.763Z,17.03
2022-11-30T01:14:14.154Z,15.77
2022-11-30T01:16:41.018Z,16.67
2022-11-30T01:19:07.472Z,15.67
2022-11-30T01:21:33.912Z,16.40
2022-11-30T01:24:00.362Z,15.23
2022-11-30T01:26:26.878Z,16.37
2022-11-30T01:28:54.506Z,16.37
2022-11-30T01:31:21.445Z,17.43
2022-11-30T01:33:52.058Z,17.07
2022-11-30T01:36:20.152Z,16.30
2022-11-30T01:38:48.159Z,17.73
2022-11-30T01:41:17.255Z,16.53
2022-11-30T01:43:48.778Z,16.97
2022-11-30T01:46:38.312Z,16.17
2022-11-30T01:49:10.919Z,17.90
2022-11-30T01:51:56.065Z,15.40
2022-11-30T01:54:28.142Z,15.47
2022-11-30T01:56:56.742Z,15.60
2022-11-30T01:59:24.128Z,18.07
2022-11-30T02:01:51.847Z,16.70
2022-11-30T02:04:31.707Z,16.07
2022-11-30T02:06:58.982Z,17.30
2022-11-30T02:09:26.905Z,16.80
2022-11-30T02:11:53.583Z,16.13
2022-11-30T02:14:32.353Z,16.53
2022-11-30T02:17:06.457Z,17.73
2022-11-30T02:19:36.138Z,17.33
2022-11-30T02:22:06.935Z,17.03
2022-11-30T02:24:33.310Z,15.27
2022-11-30T02:27:11.645Z,15.33
2022-11-30T02:29:39.706Z,16.17
2022-11-30T02:32:09.633Z,15.63
2022-11-30T02:34:37.166Z,16.27
2022-11-30T02:37:05.706Z,16.33
2022-11-30T02:39:32.174Z,16.23
2022-11-30T02:41:58.603Z,15.90
2022-11-30T02:44:25.386Z,15.93
2022-11-30T02:47:10.940Z,15.27
2022-11-30T02:49:43.647Z,16.27
2022-11-30T02:52:10.717Z,14.10
2022-11-30T02:54:37.225Z,16.30
2022-11-30T02:57:03.744Z,15.57
2022-11-30T02:59:30.223Z,16.77
2022-11-30T03:01:56.730Z,15.83
2022-11-30T03:04:23.194Z,17.03
2022-11-30T03:06:49.844Z,16.70
2022-11-30T03:09:16.294Z,15.20
2022-11-30T03:11:44.640Z,15.63
2022-11-30T03:14:11.157Z,18.20
2022-11-30T03:16:38.302Z,16.20
2022-11-30T03:19:05.542Z,15.23
2022-11-30T03:21:32.091Z,15.63
2022-11-30T03:23:58.511Z,15.33
2022-11-30T03:26:24.918Z,15.27
2022-11-30T03:28:51.362Z,15.57
2022-11-30T03:31:17.783Z,15.60
2022-11-30T03:33:44.262Z,18.90
2022-11-30T03:36:11.521Z,17.30
2022-11-30T03:38:38.564Z,17.50
2022-11-30T03:41:10.455Z,17.33
2022-11-30T03:43:36.966Z,17.67
2022-11-30T03:46:03.876Z,15.07
2022-11-30T03:48:30.962Z,15.60
2022-11-30T03:50:57.449Z,16.83
2022-11-30T03:53:24.375Z,14.13
2022-11-30T03:55:55.419Z,14.70
2022-11-30T03:58:21.942Z,16.83
2022-11-30T04:00:48.416Z,17.37
2022-11-30T04:03:15.058Z,18.03
2022-11-30T04:05:41.559Z,16.03
2022-11-30T04:08:07.954Z,15.10
2022-11-30T04:10:34.389Z,15.50
2022-11-30T04:13:00.824Z,14.60
2022-11-30T04:15:27.280Z,14.20
2022-11-30T04:17:53.656Z,15.63
2022-11-30T04:20:20.133Z,16.00
2022-11-30T04:22:46.541Z,14.73
2022-11-30T04:25:12.934Z,14.47
2022-11-30T04:27:39.347Z,14.40
2022-11-30T04:30:06.124Z,15.57
2022-11-30T04:32:32.520Z,15.97
2022-11-30T04:34:58.928Z,14.73
2022-11-30T04:37:25.358Z,16.53
2022-11-30T04:39:51.835Z,18.97
2022-11-30T04:42:18.260Z,15.77
2022-11-30T04:44:44.989Z,16.87
2022-11-30T04:47:11.546Z,15.10
2022-11-30T04:49:37.968Z,15.87
2022-11-30T04:52:04.376Z,15.13
2022-11-30T04:54:30.803Z,18.20
2022-11-30T04:56:57.269Z,13.93
2022-11-30T04:59:23.704Z,14.33
2022-11-30T05:01:50.167Z,14.00
2022-11-30T05:04:16.804Z,14.93
2022-11-30T05:06:43.268Z,14.70
2022-11-30T05:09:09.658Z,16.63
2022-11-30T05:11:36.192Z,13.93
2022-11-30T05:14:02.595Z,14.13
2022-11-30T05:16:29.111Z,17.17
2022-11-30T05:18:55.616Z,14.53
2022-11-30T05:21:21.997Z,15.40
2022-11-30T05:23:48.840Z,17.67
2022-11-30T05:26:15.978Z,14.73
2022-11-30T05:28:42.437Z,15.03
2022-11-30T05:31:08.949Z,16.70
2022-11-30T05:33:35.491Z,15.23
2022-11-30T05:36:05.811Z,14.93
2022-11-30T05:38:35.316Z,15.67
2022-11-30T05:41:02.198Z,16.10
2022-11-30T05:43:28.885Z,15.13
2022-11-30T05:46:02.130Z,13.60
2022-11-30T05:48:28.739Z,14.83
2022-11-30T05:50:55.563Z,15.97
2022-11-30T05:53:22.106Z,16.10
2022-11-30T05:55:48.519Z,13.00
2022-11-30T05:58:14.946Z,16.27
2022-11-30T06:00:41.401Z,15.97
2022-11-30T06:03:07.877Z,15.37
2022-11-30T06:05:35.489Z,22.00
2022-11-30T06:08:01.970Z,14.87
2022-11-30T06:10:28.425Z,14.50
2022-11-30T06:12:54.935Z,17.07
2022-11-30T06:15:21.418Z,15.53
2022-11-30T06:17:47.810Z,14.77
2022-11-30T06:20:14.314Z,14.43
2022-11-30T06:22:40.771Z,14.20
2022-11-30T06:25:07.271Z,15.67
2022-11-30T06:27:33.759Z,15.63
2022-11-30T06:30:00.348Z,15.23
2022-11-30T06:32:26.770Z,17.07
2022-11-30T06:34:53.172Z,16.03
2022-11-30T06:37:19.690Z,15.03
2022-11-30T06:42:32.851Z,16.80
2022-11-30T06:44:59.308Z,17.60
2022-11-30T06:47:27.299Z,23.27
2022-11-30T06:49:53.979Z,18.17
2022-11-30T06:52:20.521Z,17.07
2022-11-30T06:54:47.239Z,16.70
2022-11-30T06:57:14.027Z,17.03
2022-11-30T06:59:43.503Z,18.07
2022-11-30T07:02:17.760Z,17.53
2022-11-30T07:04:45.019Z,15.30
2022-11-30T07:07:11.629Z,19.33
2022-11-30T07:09:38.074Z,17.20
2022-11-30T07:12:04.711Z,16.97
2022-11-30T07:14:31.269Z,19.43
2022-11-30T07:16:58.058Z,15.73
2022-11-30T07:19:24.568Z,19.20
2022-11-30T07:21:50.966Z,18.73
2022-11-30T07:24:36.184Z,31.33
2022-11-30T07:27:03.191Z,20.93
2022-11-30T07:29:29.633Z,24.77
2022-11-30T07:31:56.367Z,19.97
2022-11-30T07:34:22.920Z,18.83
2022-11-30T07:36:49.375Z,20.30
2022-11-30T07:39:16.093Z,18.27
2022-11-30T07:41:42.792Z,17.47
2022-11-30T07:44:12.010Z,16.40
2022-11-30T07:46:38.833Z,16.57
2022-11-30T07:49:06.103Z,17.93
2022-11-30T07:51:32.802Z,17.77
2022-11-30T07:53:59.491Z,18.03
2022-11-30T07:56:26.649Z,16.67
2022-11-30T07:58:57.369Z,18.43
2022-11-30T08:01:24.997Z,17.33
2022-11-30T08:03:51.918Z,19.47
2022-11-30T08:06:22.589Z,17.10
2022-11-30T08:08:50.579Z,16.67
2022-11-30T08:11:18.857Z,17.37
2022-11-30T08:13:45.603Z,17.63
2022-11-30T08:16:13.198Z,20.73
2022-11-30T08:18:40.593Z,22.80
2022-11-30T08:21:08.429Z,18.20
2022-11-30T08:23:36.859Z,19.80
2022-11-30T08:26:07.490Z,16.60
2022-11-30T08:28:37.299Z,17.27
2022-11-30T08:31:04.684Z,16.73
2022-11-30T08:33:31.417Z,16.80
2022-11-30T08:36:20.926Z,20.63
2022-11-30T08:38:47.729Z,17.20
2022-11-30T08:41:15.473Z,19.97
2022-11-30T08:43:42.293Z,21.80
2022-11-30T08:46:34.603Z,18.07
2022-11-30T08:52:15.405Z,21.67
2022-11-30T08:54:29.958Z,19.90
2022-11-30T08:56:56.349Z,19.50
2022-11-30T08:59:22.834Z,19.47
2022-11-30T09:01:49.287Z,19.60
2022-11-30T09:04:18.225Z,18.33
2022-11-30T09:06:44.601Z,19.43
2022-11-30T09:09:11.021Z,21.50
2022-11-30T09:11:37.461Z,19.77
2022-11-30T09:14:04.870Z,20.73
2022-11-30T09:16:31.383Z,18.53
2022-11-30T09:18:57.984Z,21.20
2022-11-30T09:21:24.898Z,18.47
2022-11-30T09:23:51.675Z,21.07
2022-11-30T09:26:19.184Z,22.03
2022-11-30T09:28:46.228Z,19.13
2022-11-30T09:31:17.723Z,19.63
2022-11-30T09:33:44.649Z,21.43
2022-11-30T09:36:12.486Z,20.10
2022-11-30T09:38:39.279Z,20.47
2022-11-30T09:41:11.546Z,20.93
2022-11-30T09:43:37.917Z,21.10
2022-11-30T09:46:06.029Z,20.87
2022-11-30T09:48:32.427Z,23.93
2022-11-30T09:51:04.085Z,21.20
2022-11-30T09:53:33.317Z,20.13
2022-11-30T09:56:00.327Z,20.77
2022-11-30T09:58:32.808Z,22.73
2022-11-30T10:01:03.663Z,23.47
2022-11-30T10:03:33.079Z,21.10
2022-11-30T10:06:04.867Z,18.83
2022-11-30T10:08:50.471Z,19.57
2022-11-30T10:11:17.408Z,22.83
2022-11-30T10:13:52.281Z,23.80
2022-11-30T10:16:29.601Z,20.33
2022-11-30T10:19:15.915Z,20.43
2022-11-30T10:21:53.711Z,21.13
2022-11-30T10:24:29.686Z,21.67
2022-11-30T10:26:57.649Z,19.53
2022-11-30T10:29:32.062Z,23.00
2022-11-30T10:31:59.444Z,23.90
2022-11-30T10:34:25.801Z,19.47
2022-11-30T10:36:55.019Z,23.33
2022-11-30T10:39:24.377Z,22.90
2022-11-30T10:41:56.891Z,22.10
2022-11-30T10:44:29.229Z,20.00
2022-11-30T10:47:01.073Z,24.43
2022-11-30T10:49:29.390Z,23.87
2022-11-30T10:51:59.014Z,22.63
2022-11-30T10:54:25.521Z,22.00
2022-11-30T10:56:52.281Z,21.33
2022-11-30T10:59:22.283Z,22.53
2022-11-30T11:01:49.066Z,25.70
2022-11-30T11:04:17.681Z,22.87
2022-11-30T11:06:46.109Z,23.57
2022-11-30T11:09:31.110Z,22.47
2022-11-30T11:11:58.756Z,25.50
2022-11-30T11:14:26.875Z,23.60
2022-11-30T11:16:53.629Z,28.00
2022-11-30T11:19:33.473Z,23.80
2022-11-30T11:22:04.205Z,26.10
2022-11-30T11:24:30.980Z,23.37
2022-11-30T11:26:57.502Z,24.47
2022-11-30T11:29:31.468Z,23.53
2022-11-30T11:32:09.302Z,22.47
2022-11-30T11:34:36.431Z,25.93
2022-11-30T11:37:21.638Z,23.67
2022-11-30T11:39:59.473Z,23.77
2022-11-30T11:42:27.175Z,26.17
2022-11-30T11:44:55.529Z,21.93
2022-11-30T11:47:37.130Z,23.53
2022-11-30T11:50:05.290Z,21.43
2022-11-30T11:52:31.734Z,23.43
2022-11-30T11:55:03.015Z,20.23
2022-11-30T11:57:49.754Z,20.63
2022-11-30T12:00:18.529Z,19.00
2022-11-30T12:02:44.975Z,21.43
2022-11-30T12:05:15.593Z,20.27
2022-11-30T12:07:44.159Z,19.17
2022-11-30T12:10:50.561Z,18.57
2022-11-30T12:13:12.187Z,20.23
2022-11-30T12:15:49.364Z,18.03
2022-11-30T12:18:23.764Z,20.57
2022-11-30T12:20:55.945Z,21.83
2022-11-30T12:23:25.420Z,22.23
2022-11-30T12:25:54.654Z,19.10
2022-11-30T12:28:47.692Z,19.73
2022-11-30T12:31:18.427Z,19.43
2022-11-30T12:33:44.926Z,20.27
2022-11-30T12:36:40.758Z,20.43
2022-11-30T12:39:18.128Z,21.37
2022-11-30T12:41:53.379Z,19.23
2022-11-30T12:44:41.650Z,20.43
2022-11-30T12:47:20.175Z,21.33
2022-11-30T12:49:53.170Z,19.87
2022-11-30T12:52:19.656Z,21.37
2022-11-30T12:54:52.071Z,19.13
2022-11-30T12:57:27.954Z,24.17
2022-11-30T12:59:54.568Z,20.50
2022-11-30T13:02:39.421Z,22.10
2022-11-30T13:05:12.671Z,24.17
2022-11-30T13:07:45.327Z,21.67
2022-11-30T13:10:12.195Z,22.60
2022-11-30T13:12:41.341Z,21.60
2022-11-30T13:15:15.658Z,22.43
2022-11-30T13:17:42.850Z,24.27
2022-11-30T13:20:14.393Z,22.17
2022-11-30T13:22:45.678Z,21.77
2022-11-30T13:26:06.464Z,24.30
2022-11-30T13:28:36.114Z,23.33
2022-11-30T13:31:05.654Z,22.80
2022-11-30T13:33:35.146Z,22.03
2022-11-30T13:36:21.694Z,23.47
2022-11-30T13:39:07.846Z,21.13
2022-11-30T13:41:35.057Z,24.80
2022-11-30T13:44:01.722Z,22.93
2022-11-30T13:46:28.756Z,20.07
2022-11-30T13:49:14.105Z,21.77
2022-11-30T13:51:42.255Z,22.07
2022-11-30T13:54:28.402Z,22.20
2022-11-30T13:56:55.166Z,20.50
2022-11-30T13:59:24.664Z,24.13
2022-11-30T14:01:51.928Z,24.73
2022-11-30T14:04:18.467Z,25.67
2022-11-30T14:06:52.914Z,23.03
2022-11-30T14:09:37.891Z,26.17
2022-11-30T14:12:23.107Z,33.20
2022-11-30T14:14:49.539Z,22.03
2022-11-30T14:17:25.179Z,22.03
2022-11-30T14:20:07.430Z,20.97
2022-11-30T14:22:34.593Z,20.10
2022-11-30T14:25:01.698Z,22.53
2022-11-30T14:27:29.372Z,20.43
2022-11-30T14:29:59.579Z,20.53
2022-11-30T14:32:30.257Z,21.80
2022-11-30T14:35:08.103Z,20.87
2022-11-30T14:37:40.423Z,21.60
2022-11-30T14:40:07.690Z,20.10
2022-11-30T14:42:34.674Z,22.60
2022-11-30T14:45:01.393Z,28.33
2022-11-30T14:47:29.101Z,20.90
2022-11-30T14:49:57.118Z,21.57
2022-11-30T14:52:33.466Z,22.03
2022-11-30T14:55:22.846Z,22.97
2022-11-30T14:57:52.393Z,21.17
2022-11-30T15:00:20.959Z,23.97
2022-11-30T15:02:48.386Z,25.17
2022-11-30T15:05:22.659Z,23.07
2022-11-30T15:07:50.137Z,23.23
2022-11-30T15:10:26.568Z,24.80
2022-11-30T15:12:56.385Z,22.37
2022-11-30T15:15:24.116Z,23.40
2022-11-30T15:18:08.186Z,24.43
2022-11-30T15:20:39.398Z,23.27
2022-11-30T15:23:12.380Z,23.47
2022-11-30T15:25:42.050Z,19.60
2022-11-30T15:28:10.638Z,22.47
2022-11-30T15:30:38.996Z,22.33
2022-11-30T15:33:05.534Z,23.63
2022-11-30T15:35:50.292Z,20.57
2022-11-30T15:38:22.093Z,20.10
2022-11-30T15:40:54.460Z,20.80
2022-11-30T15:43:24.010Z,22.60
2022-11-30T15:45:55.709Z,19.53
2022-11-30T15:48:30.881Z,19.97
2022-11-30T15:50:57.795Z,20.60
2022-11-30T15:53:24.278Z,20.17
2022-11-30T15:55:52.856Z,20.33
2022-11-30T15:58:27.270Z,24.83
2022-11-30T16:01:06.147Z,24.33
2022-11-30T16:03:33.830Z,20.47
2022-11-30T16:06:01.483Z,20.60
2022-11-30T16:08:28.376Z,22.70
2022-11-30T16:10:55.238Z,21.37
2022-11-30T16:13:22.790Z,20.77
2022-11-30T16:15:50.831Z,19.30
2022-11-30T16:18:19.149Z,21.13
2022-11-30T16:20:47.962Z,19.20
2022-11-30T16:23:35.655Z,21.00
2022-11-30T16:26:02.219Z,19.90
2022-11-30T16:28:28.834Z,20.80
2022-11-30T16:30:56.755Z,19.90
2022-11-30T16:33:25.167Z,22.13
2022-11-30T16:35:54.987Z,24.93
2022-11-30T16:38:22.339Z,23.80
2022-11-30T16:40:49.351Z,27.07
2022-11-30T16:43:16.407Z,24.53
2022-11-30T16:45:46.929Z,24.63
2022-11-30T16:48:16.674Z,30.13
2022-11-30T16:50:44.629Z,22.97
2022-11-30T16:53:14.930Z,21.83
2022-11-30T16:55:42.135Z,25.90
2022-11-30T16:58:08.619Z,21.70
2022-11-30T17:00:35.500Z,22.17
2022-11-30T17:03:10.062Z,23.60
2022-11-30T17:05:37.373Z,20.53
2022-11-30T17:08:04.360Z,22.43
2022-11-30T17:10:31.001Z,23.23
2022-11-30T17:12:57.537Z,25.63
2022-11-30T17:15:24.461Z,25.03
2022-11-30T17:17:51.426Z,24.60
2022-11-30T17:20:18.070Z,23.17
2022-11-30T17:22:44.765Z,25.60
2022-11-30T17:25:14.073Z,23.97
2022-11-30T17:27:40.703Z,22.70
2022-11-30T17:30:08.081Z,26.23
2022-11-30T17:32:34.855Z,28.17
2022-11-30T17:35:01.731Z,25.00
2022-11-30T17:37:28.264Z,22.03
2022-11-30T17:39:55.030Z,24.47
2022-11-30T17:42:22.511Z,24.73
2022-11-30T17:44:49.618Z,23.07
2022-11-30T17:47:16.533Z,25.20
2022-11-30T17:49:43.132Z,23.43
2022-11-30T17:52:09.725Z,21.63
2022-11-30T17:54:36.324Z,23.20
2022-11-30T17:57:04.620Z,23.60
2022-11-30T17:59:31.307Z,20.30
2022-11-30T18:01:58.227Z,22.87
2022-11-30T18:04:25.098Z,22.37
2022-11-30T18:06:52.183Z,22.77
2022-11-30T18:09:18.724Z,24.33
2022-11-30T18:11:45.422Z,28.27
2022-11-30T18:14:11.879Z,24.67
2022-11-30T18:16:39.061Z,25.30
2022-11-30T18:19:12.554Z,23.83
2022-11-30T18:21:47.331Z,24.93
2022-11-30T18:24:13.899Z,18.67
2022-11-30T18:26:40.756Z,19.53
2022-11-30T18:29:07.932Z,19.93
2022-11-30T18:31:36.352Z,18.67
2022-11-30T18:34:06.766Z,22.50
2022-11-30T18:36:34.093Z,15.77
2022-11-30T18:39:01.068Z,18.87
2022-11-30T18:41:30.308Z,17.20
2022-11-30T18:43:57.275Z,20.73
2022-11-30T18:46:23.958Z,18.80
2022-11-30T18:48:51.111Z,16.80
2022-11-30T18:51:19.335Z,16.03
2022-11-30T18:53:46.391Z,17.80
2022-11-30T18:56:16.045Z,20.40
2022-11-30T18:58:42.900Z,35.97
2022-11-30T19:01:10.870Z,23.40
2022-11-30T19:03:37.646Z,19.80
2022-11-30T19:06:05.172Z,20.83
2022-11-30T19:08:31.681Z,18.63
2022-11-30T19:11:05.554Z,17.50
2022-11-30T19:13:32.275Z,18.23
2022-11-30T19:16:06.286Z,18.17
2022-11-30T19:18:33.406Z,18.37
2022-11-30T19:20:59.966Z,21.37
2022-11-30T19:23:26.437Z,19.83
2022-11-30T19:25:52.943Z,18.80
2022-11-30T19:28:19.390Z,19.60
2022-11-30T19:30:45.893Z,17.97
2022-11-30T19:33:14.191Z,31.03
2022-11-30T19:35:40.833Z,24.00
2022-11-30T19:38:07.257Z,24.67
2022-11-30T19:40:33.763Z,23.13
2022-11-30T19:43:00.226Z,22.17
2022-11-30T19:45:26.633Z,20.97
2022-11-30T19:47:53.133Z,20.63
2022-11-30T19:50:19.678Z,19.70
2022-11-30T19:52:46.440Z,21.20
2022-11-30T19:55:13.099Z,20.50
2022-11-30T19:57:39.777Z,21.50
2022-11-30T20:00:06.880Z,21.63
2022-11-30T20:02:33.890Z,19.53
2022-11-30T20:05:03.263Z,18.57
2022-11-30T20:07:29.825Z,19.27
2022-11-30T20:09:56.331Z,18.57
2022-11-30T20:12:23.116Z,18.53
2022-11-30T20:14:50.847Z,19.60
2022-11-30T20:17:17.519Z,21.73
2022-11-30T20:19:44.095Z,19.20
2022-11-30T20:22:10.554Z,20.43
2022-11-30T20:24:37.053Z,22.97
2022-11-30T20:27:04.093Z,22.40
2022-11-30T20:29:30.508Z,22.00
2022-11-30T20:31:57.011Z,24.23
2022-11-30T20:34:28.481Z,22.93
2022-11-30T20:36:57.757Z,21.87
2022-11-30T20:39:24.306Z,24.67
2022-11-30T20:41:50.719Z,25.33
2022-11-30T20:44:17.310Z,24.30
2022-11-30T20:46:44.006Z,24.07
2022-11-30T20:49:17.504Z,23.43
2022-11-30T20:51:47.048Z,26.20
2022-11-30T20:54:14.206Z,23.43
2022-11-30T20:56:41.514Z,24.03
2022-11-30T20:59:09.217Z,18.67
2022-11-30T21:01:36.001Z,22.33
2022-11-30T21:04:02.715Z,20.77
2022-11-30T21:06:29.931Z,21.40
2022-11-30T21:08:56.579Z,19.77
2022-11-30T21:11:23.651Z,20.27
2022-11-30T21:13:50.654Z,18.77
2022-11-30T21:16:22.549Z,20.83
2022-11-30T21:18:52.607Z,18.50
2022-11-30T21:21:21.110Z,17.53
2022-11-30T21:23:48.307Z,17.90
2022-11-30T21:26:19.327Z,19.17
2022-11-30T21:28:46.662Z,20.07
2022-11-30T21:31:13.445Z,18.97
2022-11-30T21:33:40.060Z,19.70
2022-11-30T21:36:07.852Z,20.13
2022-11-30T21:38:34.640Z,18.13
2022-11-30T21:41:01.555Z,20.67
2022-11-30T21:43:28.830Z,20.93
2022-11-30T21:46:01.405Z,22.67
2022-11-30T21:48:34.703Z,21.63
2022-11-30T21:51:02.179Z,22.77
2022-11-30T21:53:29.522Z,22.57
2022-11-30T21:55:56.461Z,22.27
2022-11-30T21:58:23.177Z,20.47
2022-11-30T22:00:56.222Z,21.63
2022-11-30T22:03:22.827Z,20.07
2022-11-30T22:05:59.816Z,20.23
2022-11-30T22:08:26.413Z,19.13
2022-11-30T22:10:52.876Z,20.97
2022-11-30T22:13:19.364Z,20.80
2022-11-30T22:15:45.879Z,22.00
2022-11-30T22:18:12.474Z,22.00
2022-11-30T22:20:38.926Z,21.27
2022-11-30T22:23:05.375Z,21.30
2022-11-30T22:25:31.808Z,21.93
2022-11-30T22:27:58.290Z,21.20
2022-11-30T22:30:24.832Z,20.80
2022-11-30T22:32:54.091Z,22.10
2022-11-30T22:35:20.661Z,20.70
2022-11-30T22:37:47.145Z,21.87
2022-11-30T22:40:13.855Z,22.80
2022-11-30T22:42:40.347Z,21.43
2022-11-30T22:45:07.167Z,22.03
2022-11-30T22:47:33.609Z,19.17
2022-11-30T22:50:00.171Z,20.67
2022-11-30T22:52:48.261Z,22.17
2022-11-30T22:55:13.272Z,21.10
2022-11-30T22:57:39.803Z,20.90
2022-11-30T23:00:06.944Z,18.77
2022-11-30T23:02:33.452Z,18.53
2022-11-30T23:04:59.905Z,20.23
2022-11-30T23:07:31.753Z,18.70
2022-11-30T23:09:58.626Z,20.50
2022-11-30T23:12:51.361Z,20.77
2022-11-30T23:15:11.519Z,20.73
2022-11-30T23:17:38.017Z,18.13
2022-11-30T23:20:04.658Z,19.73
2022-11-30T23:22:31.178Z,20.37
2022-11-30T23:24:57.581Z,22.17
2022-11-30T23:27:24.024Z,22.07
2022-11-30T23:29:50.689Z,20.93
2022-11-30T23:32:17.252Z,19.97
2022-11-30T23:34:46.939Z,18.40
2022-11-30T23:37:16.976Z,21.23
2022-11-30T23:39:43.386Z,19.27
2022-11-30T23:42:09.851Z,19.43
2022-11-30T23:44:36.318Z,20.87
2022-11-30T23:47:02.791Z,18.87
2022-11-30T23:49:29.297Z,19.27
2022-11-30T23:51:55.792Z,20.23
2022-11-30T23:54:22.211Z,21.23
2022-11-30T23:56:48.676Z,20.33
2022-11-30T23:59:15.125Z,19.07
